sensor_id;sensor_type;location;lat;lon;timestamp;P1;durP1;ratioP1;P2;durP2;ratioP2
9522;SDS011;63165;43.016;25.784;2022-12-22T00:02:29;171.25;;;34.55;;
9522;SDS011;63165;43.016;25.784;2022-12-22T00:05:15;158.73;;;34.55;;
9522;SDS011;63165;43.016;25.784;2022-12-22T00:08:01;654.95;;;143.52;;
9522;SDS011;63165;43.016;25.784;2022-12-22T00:10:46;181.32;;;34.83;;
9522;SDS011;63165;43.016;25.784;2022-12-22T00:13:30;172.63;;;34.15;;
9522;SDS011;63165;43.016;25.784;2022-12-22T00:16:16;160.05;;;31.90;;
9522;SDS011;63165;43.016;25.784;2022-12-22T00:19:01;174.00;;;33.50;;
9522;SDS011;63165;43.016;25.784;2022-12-22T00:21:47;195.70;;;35.65;;
9522;SDS011;63165;43.016;25.784;2022-12-22T00:24:31;158.00;;;32.00;;
9522;SDS011;63165;43.016;25.784;2022-12-22T00:27:16;171.13;;;34.13;;
9522;SDS011;63165;43.016;25.784;2022-12-22T00:30:04;172.48;;;32.40;;
9522;SDS011;63165;43.016;25.784;2022-12-22T00:32:55;166.00;;;32.92;;
9522;SDS011;63165;43.016;25.784;2022-12-22T00:35:39;316.83;;;63.40;;
9522;SDS011;63165;43.016;25.784;2022-12-22T00:38:26;248.45;;;51.33;;
9522;SDS011;63165;43.016;25.784;2022-12-22T00:41:11;349.45;;;76.80;;
9522;SDS011;63165;43.016;25.784;2022-12-22T00:43:55;165.98;;;35.78;;
9522;SDS011;63165;43.016;25.784;2022-12-22T00:46:40;167.23;;;32.42;;
9522;SDS011;63165;43.016;25.784;2022-12-22T00:49:27;150.50;;;32.83;;
9522;SDS011;63165;43.016;25.784;2022-12-22T00:52:13;168.73;;;31.52;;
9522;SDS011;63165;43.016;25.784;2022-12-22T00:55:00;165.75;;;33.95;;
9522;SDS011;63165;43.016;25.784;2022-12-22T00:57:46;163.00;;;33.25;;
9522;SDS011;63165;43.016;25.784;2022-12-22T01:00:30;184.65;;;34.22;;
9522;SDS011;63165;43.016;25.784;2022-12-22T01:03:15;206.57;;;34.08;;
9522;SDS011;63165;43.016;25.784;2022-12-22T01:05:59;189.40;;;34.17;;
9522;SDS011;63165;43.016;25.784;2022-12-22T01:08:45;160.43;;;32.83;;
9522;SDS011;63165;43.016;25.784;2022-12-22T01:11:32;156.55;;;30.45;;
9522;SDS011;63165;43.016;25.784;2022-12-22T01:14:17;165.05;;;31.15;;
9522;SDS011;63165;43.016;25.784;2022-12-22T01:17:01;145.55;;;30.33;;
9522;SDS011;63165;43.016;25.784;2022-12-22T01:19:46;166.27;;;30.98;;
9522;SDS011;63165;43.016;25.784;2022-12-22T01:22:30;157.80;;;30.42;;
9522;SDS011;63165;43.016;25.784;2022-12-22T01:25:16;127.20;;;29.10;;
9522;SDS011;63165;43.016;25.784;2022-12-22T01:28:04;148.40;;;30.90;;
9522;SDS011;63165;43.016;25.784;2022-12-22T01:30:48;160.07;;;30.15;;
9522;SDS011;63165;43.016;25.784;2022-12-22T01:33:33;140.27;;;28.92;;
9522;SDS011;63165;43.016;25.784;2022-12-22T01:36:18;156.60;;;32.22;;
9522;SDS011;63165;43.016;25.784;2022-12-22T01:39:02;131.30;;;27.63;;
9522;SDS011;63165;43.016;25.784;2022-12-22T01:41:47;152.60;;;30.20;;
9522;SDS011;63165;43.016;25.784;2022-12-22T01:44:34;148.93;;;29.60;;
9522;SDS011;63165;43.016;25.784;2022-12-22T01:47:29;170.68;;;31.85;;
9522;SDS011;63165;43.016;25.784;2022-12-22T01:50:18;156.02;;;31.55;;
9522;SDS011;63165;43.016;25.784;2022-12-22T01:53:10;147.82;;;30.40;;
9522;SDS011;63165;43.016;25.784;2022-12-22T01:55:58;132.77;;;26.50;;
9522;SDS011;63165;43.016;25.784;2022-12-22T01:58:45;149.65;;;27.90;;
9522;SDS011;63165;43.016;25.784;2022-12-22T02:01:34;127.60;;;26.88;;
9522;SDS011;63165;43.016;25.784;2022-12-22T02:04:20;106.47;;;25.45;;
9522;SDS011;63165;43.016;25.784;2022-12-22T02:07:10;115.85;;;24.70;;
9522;SDS011;63165;43.016;25.784;2022-12-22T02:10:07;121.57;;;27.15;;
9522;SDS011;63165;43.016;25.784;2022-12-22T02:13:00;147.80;;;29.15;;
9522;SDS011;63165;43.016;25.784;2022-12-22T02:15:56;138.25;;;28.20;;
9522;SDS011;63165;43.016;25.784;2022-12-22T02:18:49;140.63;;;31.58;;
9522;SDS011;63165;43.016;25.784;2022-12-22T02:21:39;110.90;;;26.85;;
9522;SDS011;63165;43.016;25.784;2022-12-22T02:24:35;120.55;;;23.77;;
9522;SDS011;63165;43.016;25.784;2022-12-22T02:27:24;95.15;;;22.30;;
9522;SDS011;63165;43.016;25.784;2022-12-22T02:30:10;116.95;;;23.70;;
9522;SDS011;63165;43.016;25.784;2022-12-22T02:32:55;105.00;;;24.08;;
9522;SDS011;63165;43.016;25.784;2022-12-22T02:35:42;97.63;;;22.00;;
9522;SDS011;63165;43.016;25.784;2022-12-22T02:38:32;116.68;;;23.30;;
9522;SDS011;63165;43.016;25.784;2022-12-22T02:41:26;100.07;;;22.45;;
9522;SDS011;63165;43.016;25.784;2022-12-22T02:44:24;79.65;;;19.20;;
9522;SDS011;63165;43.016;25.784;2022-12-22T02:47:16;88.60;;;20.42;;
9522;SDS011;63165;43.016;25.784;2022-12-22T02:50:08;100.03;;;22.55;;
9522;SDS011;63165;43.016;25.784;2022-12-22T02:53:00;126.72;;;25.60;;
9522;SDS011;63165;43.016;25.784;2022-12-22T02:55:46;140.23;;;26.15;;
9522;SDS011;63165;43.016;25.784;2022-12-22T02:58:30;113.95;;;22.52;;
9522;SDS011;63165;43.016;25.784;2022-12-22T03:01:17;200.85;;;38.90;;
9522;SDS011;63165;43.016;25.784;2022-12-22T03:04:03;235.20;;;42.78;;
9522;SDS011;63165;43.016;25.784;2022-12-22T03:06:47;151.63;;;28.85;;
9522;SDS011;63165;43.016;25.784;2022-12-22T03:09:32;115.30;;;26.08;;
9522;SDS011;63165;43.016;25.784;2022-12-22T03:12:16;156.45;;;36.47;;
9522;SDS011;63165;43.016;25.784;2022-12-22T03:15:01;119.28;;;29.02;;
9522;SDS011;63165;43.016;25.784;2022-12-22T03:17:47;114.57;;;24.58;;
9522;SDS011;63165;43.016;25.784;2022-12-22T03:20:31;104.15;;;21.67;;
9522;SDS011;63165;43.016;25.784;2022-12-22T03:23:15;108.75;;;21.35;;
9522;SDS011;63165;43.016;25.784;2022-12-22T03:25:59;115.97;;;23.00;;
9522;SDS011;63165;43.016;25.784;2022-12-22T03:28:27;110.90;;;21.80;;
9522;SDS011;63165;43.016;25.784;2022-12-22T03:30:55;95.35;;;21.35;;
9522;SDS011;63165;43.016;25.784;2022-12-22T03:33:25;111.78;;;26.27;;
9522;SDS011;63165;43.016;25.784;2022-12-22T03:35:53;108.55;;;23.67;;
9522;SDS011;63165;43.016;25.784;2022-12-22T03:38:20;106.50;;;21.35;;
9522;SDS011;63165;43.016;25.784;2022-12-22T03:40:47;113.50;;;21.77;;
9522;SDS011;63165;43.016;25.784;2022-12-22T03:43:15;111.63;;;21.55;;
9522;SDS011;63165;43.016;25.784;2022-12-22T03:45:59;111.15;;;22.67;;
9522;SDS011;63165;43.016;25.784;2022-12-22T03:48:45;104.57;;;22.73;;
9522;SDS011;63165;43.016;25.784;2022-12-22T03:51:33;95.20;;;23.52;;
9522;SDS011;63165;43.016;25.784;2022-12-22T03:54:01;120.63;;;24.42;;
9522;SDS011;63165;43.016;25.784;2022-12-22T03:56:28;121.28;;;22.70;;
9522;SDS011;63165;43.016;25.784;2022-12-22T03:58:55;134.15;;;23.08;;
9522;SDS011;63165;43.016;25.784;2022-12-22T04:01:23;106.13;;;22.75;;
9522;SDS011;63165;43.016;25.784;2022-12-22T04:03:51;166.68;;;26.60;;
9522;SDS011;63165;43.016;25.784;2022-12-22T04:06:19;125.55;;;24.23;;
9522;SDS011;63165;43.016;25.784;2022-12-22T04:08:46;114.60;;;25.55;;
9522;SDS011;63165;43.016;25.784;2022-12-22T04:11:14;154.65;;;29.50;;
9522;SDS011;63165;43.016;25.784;2022-12-22T04:13:59;120.43;;;24.45;;
9522;SDS011;63165;43.016;25.784;2022-12-22T04:16:27;134.75;;;25.75;;
9522;SDS011;63165;43.016;25.784;2022-12-22T04:18:56;186.50;;;28.77;;
9522;SDS011;63165;43.016;25.784;2022-12-22T04:21:24;154.18;;;29.10;;
9522;SDS011;63165;43.016;25.784;2022-12-22T04:23:52;173.05;;;35.40;;
9522;SDS011;63165;43.016;25.784;2022-12-22T04:26:20;155.73;;;32.78;;
9522;SDS011;63165;43.016;25.784;2022-12-22T04:28:49;133.88;;;28.80;;
9522;SDS011;63165;43.016;25.784;2022-12-22T04:31:17;134.88;;;25.70;;
9522;SDS011;63165;43.016;25.784;2022-12-22T04:33:44;146.23;;;25.52;;
9522;SDS011;63165;43.016;25.784;2022-12-22T04:36:13;131.75;;;26.25;;
9522;SDS011;63165;43.016;25.784;2022-12-22T04:38:41;285.35;;;56.72;;
9522;SDS011;63165;43.016;25.784;2022-12-22T04:41:09;166.73;;;34.20;;
9522;SDS011;63165;43.016;25.784;2022-12-22T04:43:36;179.07;;;39.78;;
9522;SDS011;63165;43.016;25.784;2022-12-22T04:46:04;152.68;;;30.40;;
9522;SDS011;63165;43.016;25.784;2022-12-22T04:48:33;174.27;;;26.85;;
9522;SDS011;63165;43.016;25.784;2022-12-22T04:51:00;156.85;;;29.15;;
9522;SDS011;63165;43.016;25.784;2022-12-22T04:53:29;185.30;;;30.13;;
9522;SDS011;63165;43.016;25.784;2022-12-22T04:55:57;151.23;;;27.48;;
9522;SDS011;63165;43.016;25.784;2022-12-22T04:58:26;137.60;;;26.88;;
9522;SDS011;63165;43.016;25.784;2022-12-22T05:00:54;138.32;;;28.88;;
9522;SDS011;63165;43.016;25.784;2022-12-22T05:03:22;193.27;;;42.22;;
9522;SDS011;63165;43.016;25.784;2022-12-22T05:05:50;146.23;;;27.02;;
9522;SDS011;63165;43.016;25.784;2022-12-22T05:08:20;147.20;;;30.98;;
9522;SDS011;63165;43.016;25.784;2022-12-22T05:10:49;156.80;;;26.52;;
9522;SDS011;63165;43.016;25.784;2022-12-22T05:13:16;132.65;;;26.30;;
9522;SDS011;63165;43.016;25.784;2022-12-22T05:15:44;159.40;;;26.02;;
9522;SDS011;63165;43.016;25.784;2022-12-22T05:18:11;130.15;;;24.67;;
9522;SDS011;63165;43.016;25.784;2022-12-22T05:20:38;115.60;;;24.42;;
9522;SDS011;63165;43.016;25.784;2022-12-22T05:23:06;117.63;;;24.27;;
9522;SDS011;63165;43.016;25.784;2022-12-22T05:25:33;183.20;;;25.90;;
9522;SDS011;63165;43.016;25.784;2022-12-22T05:28:03;164.43;;;26.25;;
9522;SDS011;63165;43.016;25.784;2022-12-22T05:30:30;153.85;;;27.42;;
9522;SDS011;63165;43.016;25.784;2022-12-22T05:32:58;126.20;;;26.27;;
9522;SDS011;63165;43.016;25.784;2022-12-22T05:35:25;149.88;;;25.48;;
9522;SDS011;63165;43.016;25.784;2022-12-22T05:37:52;146.98;;;25.63;;
9522;SDS011;63165;43.016;25.784;2022-12-22T05:40:19;144.38;;;24.83;;
9522;SDS011;63165;43.016;25.784;2022-12-22T05:42:46;226.60;;;32.78;;
9522;SDS011;63165;43.016;25.784;2022-12-22T05:45:16;191.07;;;33.22;;
9522;SDS011;63165;43.016;25.784;2022-12-22T05:47:45;169.02;;;27.95;;
9522;SDS011;63165;43.016;25.784;2022-12-22T05:50:14;122.57;;;26.00;;
9522;SDS011;63165;43.016;25.784;2022-12-22T05:52:44;140.10;;;28.75;;
9522;SDS011;63165;43.016;25.784;2022-12-22T05:55:11;149.25;;;26.23;;
9522;SDS011;63165;43.016;25.784;2022-12-22T05:57:40;139.20;;;25.83;;
9522;SDS011;63165;43.016;25.784;2022-12-22T06:00:08;111.93;;;23.45;;
9522;SDS011;63165;43.016;25.784;2022-12-22T06:02:39;231.07;;;37.78;;
9522;SDS011;63165;43.016;25.784;2022-12-22T06:05:07;132.35;;;23.42;;
9522;SDS011;63165;43.016;25.784;2022-12-22T06:07:36;151.82;;;33.83;;
9522;SDS011;63165;43.016;25.784;2022-12-22T06:10:04;123.07;;;28.48;;
9522;SDS011;63165;43.016;25.784;2022-12-22T06:12:35;117.47;;;24.25;;
9522;SDS011;63165;43.016;25.784;2022-12-22T06:15:02;145.27;;;26.63;;
9522;SDS011;63165;43.016;25.784;2022-12-22T06:17:30;177.65;;;26.52;;
9522;SDS011;63165;43.016;25.784;2022-12-22T06:19:59;131.52;;;25.67;;
9522;SDS011;63165;43.016;25.784;2022-12-22T06:22:27;148.43;;;25.08;;
9522;SDS011;63165;43.016;25.784;2022-12-22T06:24:54;163.32;;;24.45;;
9522;SDS011;63165;43.016;25.784;2022-12-22T06:27:21;152.25;;;24.02;;
9522;SDS011;63165;43.016;25.784;2022-12-22T06:29:48;197.57;;;23.95;;
9522;SDS011;63165;43.016;25.784;2022-12-22T06:32:15;110.53;;;20.67;;
9522;SDS011;63165;43.016;25.784;2022-12-22T06:34:43;124.80;;;21.80;;
9522;SDS011;63165;43.016;25.784;2022-12-22T06:37:12;113.13;;;23.45;;
9522;SDS011;63165;43.016;25.784;2022-12-22T06:39:39;94.25;;;22.45;;
9522;SDS011;63165;43.016;25.784;2022-12-22T06:42:07;109.97;;;23.50;;
9522;SDS011;63165;43.016;25.784;2022-12-22T06:44:52;153.20;;;30.75;;
9522;SDS011;63165;43.016;25.784;2022-12-22T06:47:19;107.75;;;26.00;;
9522;SDS011;63165;43.016;25.784;2022-12-22T06:49:47;110.90;;;24.17;;
9522;SDS011;63165;43.016;25.784;2022-12-22T06:52:15;125.28;;;27.85;;
9522;SDS011;63165;43.016;25.784;2022-12-22T06:54:43;94.47;;;22.33;;
9522;SDS011;63165;43.016;25.784;2022-12-22T06:57:10;82.97;;;21.10;;
9522;SDS011;63165;43.016;25.784;2022-12-22T06:59:38;93.97;;;20.17;;
9522;SDS011;63165;43.016;25.784;2022-12-22T07:02:05;114.85;;;25.38;;
9522;SDS011;63165;43.016;25.784;2022-12-22T07:04:32;114.68;;;23.42;;
9522;SDS011;63165;43.016;25.784;2022-12-22T07:07:00;108.75;;;25.80;;
9522;SDS011;63165;43.016;25.784;2022-12-22T07:09:28;138.55;;;28.70;;
9522;SDS011;63165;43.016;25.784;2022-12-22T07:11:56;131.02;;;29.40;;
9522;SDS011;63165;43.016;25.784;2022-12-22T07:14:23;155.43;;;31.92;;
9522;SDS011;63165;43.016;25.784;2022-12-22T07:16:51;138.77;;;30.50;;
9522;SDS011;63165;43.016;25.784;2022-12-22T07:19:18;150.48;;;31.83;;
9522;SDS011;63165;43.016;25.784;2022-12-22T07:21:45;148.77;;;34.28;;
9522;SDS011;63165;43.016;25.784;2022-12-22T07:24:13;158.10;;;34.35;;
9522;SDS011;63165;43.016;25.784;2022-12-22T07:26:49;212.73;;;50.30;;
9522;SDS011;63165;43.016;25.784;2022-12-22T07:29:16;216.95;;;46.10;;
9522;SDS011;63165;43.016;25.784;2022-12-22T07:31:43;119.72;;;29.13;;
9522;SDS011;63165;43.016;25.784;2022-12-22T07:34:11;592.83;;;131.25;;
9522;SDS011;63165;43.016;25.784;2022-12-22T07:36:38;92.35;;;22.77;;
9522;SDS011;63165;43.016;25.784;2022-12-22T07:39:06;114.60;;;26.27;;
9522;SDS011;63165;43.016;25.784;2022-12-22T07:41:33;104.28;;;26.33;;
9522;SDS011;63165;43.016;25.784;2022-12-22T07:44:19;127.97;;;32.42;;
9522;SDS011;63165;43.016;25.784;2022-12-22T07:46:47;97.57;;;24.50;;
9522;SDS011;63165;43.016;25.784;2022-12-22T07:49:14;103.68;;;26.67;;
9522;SDS011;63165;43.016;25.784;2022-12-22T07:51:59;100.55;;;24.10;;
9522;SDS011;63165;43.016;25.784;2022-12-22T07:54:26;107.25;;;28.55;;
9522;SDS011;63165;43.016;25.784;2022-12-22T07:56:53;116.43;;;26.48;;
9522;SDS011;63165;43.016;25.784;2022-12-22T07:59:22;78.25;;;23.13;;
9522;SDS011;63165;43.016;25.784;2022-12-22T08:01:50;91.28;;;24.17;;
9522;SDS011;63165;43.016;25.784;2022-12-22T08:04:17;90.07;;;22.48;;
9522;SDS011;63165;43.016;25.784;2022-12-22T08:06:46;74.53;;;21.38;;
9522;SDS011;63165;43.016;25.784;2022-12-22T08:09:14;104.50;;;26.90;;
9522;SDS011;63165;43.016;25.784;2022-12-22T08:11:42;132.38;;;35.45;;
9522;SDS011;63165;43.016;25.784;2022-12-22T08:14:09;117.55;;;28.30;;
9522;SDS011;63165;43.016;25.784;2022-12-22T08:16:38;74.35;;;22.00;;
9522;SDS011;63165;43.016;25.784;2022-12-22T08:19:05;79.38;;;20.92;;
9522;SDS011;63165;43.016;25.784;2022-12-22T08:21:33;79.78;;;21.42;;
9522;SDS011;63165;43.016;25.784;2022-12-22T08:24:00;84.68;;;24.33;;
9522;SDS011;63165;43.016;25.784;2022-12-22T08:26:28;76.32;;;20.48;;
9522;SDS011;63165;43.016;25.784;2022-12-22T08:29:01;91.53;;;23.10;;
9522;SDS011;63165;43.016;25.784;2022-12-22T08:31:31;87.50;;;24.70;;
9522;SDS011;63165;43.016;25.784;2022-12-22T08:34:01;70.25;;;20.13;;
9522;SDS011;63165;43.016;25.784;2022-12-22T08:36:33;72.13;;;20.02;;
9522;SDS011;63165;43.016;25.784;2022-12-22T08:39:02;82.72;;;21.02;;
9522;SDS011;63165;43.016;25.784;2022-12-22T08:41:30;71.47;;;19.67;;
9522;SDS011;63165;43.016;25.784;2022-12-22T08:44:18;75.68;;;20.90;;
9522;SDS011;63165;43.016;25.784;2022-12-22T08:46:46;70.53;;;20.85;;
9522;SDS011;63165;43.016;25.784;2022-12-22T08:49:16;82.38;;;21.80;;
9522;SDS011;63165;43.016;25.784;2022-12-22T08:51:43;109.32;;;28.10;;
9522;SDS011;63165;43.016;25.784;2022-12-22T08:54:11;91.28;;;26.95;;
9522;SDS011;63165;43.016;25.784;2022-12-22T08:56:38;88.63;;;25.63;;
9522;SDS011;63165;43.016;25.784;2022-12-22T08:59:06;81.00;;;22.60;;
9522;SDS011;63165;43.016;25.784;2022-12-22T09:01:34;66.13;;;19.60;;
9522;SDS011;63165;43.016;25.784;2022-12-22T09:04:03;72.43;;;20.35;;
9522;SDS011;63165;43.016;25.784;2022-12-22T09:06:33;74.18;;;21.98;;
9522;SDS011;63165;43.016;25.784;2022-12-22T09:09:02;123.13;;;30.88;;
9522;SDS011;63165;43.016;25.784;2022-12-22T09:11:31;70.75;;;18.23;;
9522;SDS011;63165;43.016;25.784;2022-12-22T09:14:00;56.83;;;16.95;;
9522;SDS011;63165;43.016;25.784;2022-12-22T09:16:28;89.05;;;24.55;;
9522;SDS011;63165;43.016;25.784;2022-12-22T09:18:56;65.35;;;19.77;;
9522;SDS011;63165;43.016;25.784;2022-12-22T09:21:23;67.82;;;19.08;;
9522;SDS011;63165;43.016;25.784;2022-12-22T09:23:52;57.13;;;15.90;;
9522;SDS011;63165;43.016;25.784;2022-12-22T09:26:21;66.45;;;19.85;;
9522;SDS011;63165;43.016;25.784;2022-12-22T09:28:49;50.80;;;16.17;;
9522;SDS011;63165;43.016;25.784;2022-12-22T09:31:17;54.28;;;16.08;;
9522;SDS011;63165;43.016;25.784;2022-12-22T09:33:45;57.90;;;16.48;;
9522;SDS011;63165;43.016;25.784;2022-12-22T09:36:13;61.50;;;17.52;;
9522;SDS011;63165;43.016;25.784;2022-12-22T09:38:42;69.43;;;18.08;;
9522;SDS011;63165;43.016;25.784;2022-12-22T09:41:13;53.30;;;15.93;;
9522;SDS011;63165;43.016;25.784;2022-12-22T09:43:43;46.38;;;14.30;;
9522;SDS011;63165;43.016;25.784;2022-12-22T09:46:12;49.88;;;15.35;;
9522;SDS011;63165;43.016;25.784;2022-12-22T09:48:46;46.28;;;14.57;;
9522;SDS011;63165;43.016;25.784;2022-12-22T09:51:14;51.30;;;15.05;;
9522;SDS011;63165;43.016;25.784;2022-12-22T09:53:43;48.45;;;15.90;;
9522;SDS011;63165;43.016;25.784;2022-12-22T09:56:14;45.00;;;14.40;;
9522;SDS011;63165;43.016;25.784;2022-12-22T09:58:43;49.30;;;14.68;;
9522;SDS011;63165;43.016;25.784;2022-12-22T10:01:19;48.08;;;14.45;;
9522;SDS011;63165;43.016;25.784;2022-12-22T10:03:59;47.05;;;13.93;;
9522;SDS011;63165;43.016;25.784;2022-12-22T10:06:33;44.78;;;13.20;;
9522;SDS011;63165;43.016;25.784;2022-12-22T10:09:10;38.35;;;13.18;;
9522;SDS011;63165;43.016;25.784;2022-12-22T10:11:51;47.50;;;14.48;;
9522;SDS011;63165;43.016;25.784;2022-12-22T10:14:32;44.80;;;12.70;;
9522;SDS011;63165;43.016;25.784;2022-12-22T10:17:15;34.80;;;11.55;;
9522;SDS011;63165;43.016;25.784;2022-12-22T10:19:44;36.70;;;11.63;;
9522;SDS011;63165;43.016;25.784;2022-12-22T10:22:24;33.40;;;10.60;;
9522;SDS011;63165;43.016;25.784;2022-12-22T10:24:54;32.17;;;10.93;;
9522;SDS011;63165;43.016;25.784;2022-12-22T10:27:24;34.72;;;11.45;;
9522;SDS011;63165;43.016;25.784;2022-12-22T10:32:44;39.28;;;12.02;;
9522;SDS011;63165;43.016;25.784;2022-12-22T10:35:34;42.83;;;10.95;;
9522;SDS011;63165;43.016;25.784;2022-12-22T10:38:12;78.90;;;21.33;;
9522;SDS011;63165;43.016;25.784;2022-12-22T10:40:42;36.10;;;11.40;;
9522;SDS011;63165;43.016;25.784;2022-12-22T10:43:17;29.08;;;10.07;;
9522;SDS011;63165;43.016;25.784;2022-12-22T10:45:47;38.03;;;10.85;;
9522;SDS011;63165;43.016;25.784;2022-12-22T10:48:15;33.95;;;10.30;;
9522;SDS011;63165;43.016;25.784;2022-12-22T10:50:44;36.17;;;10.52;;
9522;SDS011;63165;43.016;25.784;2022-12-22T10:53:12;37.38;;;10.68;;
9522;SDS011;63165;43.016;25.784;2022-12-22T10:55:40;30.48;;;10.18;;
9522;SDS011;63165;43.016;25.784;2022-12-22T10:58:15;36.92;;;10.27;;
9522;SDS011;63165;43.016;25.784;2022-12-22T11:00:58;29.48;;;10.32;;
9522;SDS011;63165;43.016;25.784;2022-12-22T11:03:28;45.50;;;15.05;;
9522;SDS011;63165;43.016;25.784;2022-12-22T11:05:56;91.03;;;26.08;;
9522;SDS011;63165;43.016;25.784;2022-12-22T11:08:24;88.70;;;25.20;;
9522;SDS011;63165;43.016;25.784;2022-12-22T11:10:53;162.00;;;39.55;;
9522;SDS011;63165;43.016;25.784;2022-12-22T11:13:36;57.03;;;15.07;;
9522;SDS011;63165;43.016;25.784;2022-12-22T11:16:13;59.33;;;16.77;;
9522;SDS011;63165;43.016;25.784;2022-12-22T11:18:48;33.17;;;10.07;;
9522;SDS011;63165;43.016;25.784;2022-12-22T11:21:35;22.63;;;8.57;;
9522;SDS011;63165;43.016;25.784;2022-12-22T11:24:13;25.77;;;9.02;;
9522;SDS011;63165;43.016;25.784;2022-12-22T11:26:55;22.73;;;8.48;;
9522;SDS011;63165;43.016;25.784;2022-12-22T11:29:40;28.38;;;8.10;;
9522;SDS011;63165;43.016;25.784;2022-12-22T11:32:28;33.92;;;9.00;;
9522;SDS011;63165;43.016;25.784;2022-12-22T11:35:10;30.58;;;10.45;;
9522;SDS011;63165;43.016;25.784;2022-12-22T11:37:44;22.83;;;7.95;;
9522;SDS011;63165;43.016;25.784;2022-12-22T11:40:18;22.42;;;8.25;;
9522;SDS011;63165;43.016;25.784;2022-12-22T11:42:58;24.48;;;7.88;;
9522;SDS011;63165;43.016;25.784;2022-12-22T11:48:25;24.60;;;8.20;;
9522;SDS011;63165;43.016;25.784;2022-12-22T11:51:14;26.20;;;8.10;;
9522;SDS011;63165;43.016;25.784;2022-12-22T11:54:05;27.10;;;8.05;;
9522;SDS011;63165;43.016;25.784;2022-12-22T11:56:49;22.95;;;8.18;;
9522;SDS011;63165;43.016;25.784;2022-12-22T11:59:29;28.25;;;8.68;;
9522;SDS011;63165;43.016;25.784;2022-12-22T12:02:18;25.05;;;8.18;;
9522;SDS011;63165;43.016;25.784;2022-12-22T12:05:10;20.75;;;7.95;;
9522;SDS011;63165;43.016;25.784;2022-12-22T12:07:50;23.38;;;7.85;;
9522;SDS011;63165;43.016;25.784;2022-12-22T12:10:30;26.20;;;8.40;;
9522;SDS011;63165;43.016;25.784;2022-12-22T12:13:03;29.40;;;9.05;;
9522;SDS011;63165;43.016;25.784;2022-12-22T12:15:40;26.27;;;7.95;;
9522;SDS011;63165;43.016;25.784;2022-12-22T12:21:18;23.60;;;8.02;;
9522;SDS011;63165;43.016;25.784;2022-12-22T12:23:56;18.52;;;6.50;;
9522;SDS011;63165;43.016;25.784;2022-12-22T12:26:48;20.67;;;7.10;;
9522;SDS011;63165;43.016;25.784;2022-12-22T12:29:23;18.02;;;7.10;;
9522;SDS011;63165;43.016;25.784;2022-12-22T12:31:52;19.38;;;7.28;;
9522;SDS011;63165;43.016;25.784;2022-12-22T12:34:26;22.98;;;7.13;;
9522;SDS011;63165;43.016;25.784;2022-12-22T12:37:00;22.92;;;7.90;;
9522;SDS011;63165;43.016;25.784;2022-12-22T12:39:30;28.33;;;11.27;;
9522;SDS011;63165;43.016;25.784;2022-12-22T12:42:05;23.45;;;7.47;;
9522;SDS011;63165;43.016;25.784;2022-12-22T12:44:44;24.85;;;8.43;;
9522;SDS011;63165;43.016;25.784;2022-12-22T12:47:22;26.25;;;9.93;;
9522;SDS011;63165;43.016;25.784;2022-12-22T12:49:58;25.27;;;8.48;;
9522;SDS011;63165;43.016;25.784;2022-12-22T12:58:46;37.80;;;12.55;;
9522;SDS011;63165;43.016;25.784;2022-12-22T13:16:35;35.75;;;12.77;;
9522;SDS011;63165;43.016;25.784;2022-12-22T13:19:09;41.65;;;13.13;;
9522;SDS011;63165;43.016;25.784;2022-12-22T13:21:45;30.65;;;10.73;;
9522;SDS011;63165;43.016;25.784;2022-12-22T13:24:20;31.38;;;11.82;;
9522;SDS011;63165;43.016;25.784;2022-12-22T13:26:52;33.80;;;12.20;;
9522;SDS011;63165;43.016;25.784;2022-12-22T13:29:28;31.17;;;11.98;;
9522;SDS011;63165;43.016;25.784;2022-12-22T13:32:13;49.17;;;18.20;;
9522;SDS011;63165;43.016;25.784;2022-12-22T13:34:47;52.35;;;18.70;;
9522;SDS011;63165;43.016;25.784;2022-12-22T13:37:21;43.95;;;16.75;;
9522;SDS011;63165;43.016;25.784;2022-12-22T13:40:06;39.15;;;13.60;;
9522;SDS011;63165;43.016;25.784;2022-12-22T13:42:38;49.20;;;15.73;;
9522;SDS011;63165;43.016;25.784;2022-12-22T13:45:11;50.80;;;16.73;;
9522;SDS011;63165;43.016;25.784;2022-12-22T13:47:43;59.55;;;22.10;;
9522;SDS011;63165;43.016;25.784;2022-12-22T13:50:16;58.70;;;20.83;;
9522;SDS011;63165;43.016;25.784;2022-12-22T13:52:46;72.22;;;25.55;;
9522;SDS011;63165;43.016;25.784;2022-12-22T13:55:18;48.47;;;18.13;;
9522;SDS011;63165;43.016;25.784;2022-12-22T13:57:55;50.47;;;18.15;;
9522;SDS011;63165;43.016;25.784;2022-12-22T14:02:54;43.42;;;15.90;;
9522;SDS011;63165;43.016;25.784;2022-12-22T14:05:22;41.38;;;16.00;;
9522;SDS011;63165;43.016;25.784;2022-12-22T14:07:58;48.88;;;16.80;;
9522;SDS011;63165;43.016;25.784;2022-12-22T14:10:27;59.85;;;19.20;;
9522;SDS011;63165;43.016;25.784;2022-12-22T14:13:01;39.58;;;14.38;;
9522;SDS011;63165;43.016;25.784;2022-12-22T14:15:32;42.65;;;15.07;;
9522;SDS011;63165;43.016;25.784;2022-12-22T14:18:00;47.28;;;14.88;;
9522;SDS011;63165;43.016;25.784;2022-12-22T14:20:28;33.85;;;11.98;;
9522;SDS011;63165;43.016;25.784;2022-12-22T14:25:32;35.67;;;11.15;;
9522;SDS011;63165;43.016;25.784;2022-12-22T14:28:04;34.92;;;10.73;;
9522;SDS011;63165;43.016;25.784;2022-12-22T14:30:34;29.15;;;10.00;;
9522;SDS011;63165;43.016;25.784;2022-12-22T14:33:14;33.72;;;10.73;;
9522;SDS011;63165;43.016;25.784;2022-12-22T14:35:44;35.03;;;10.57;;
9522;SDS011;63165;43.016;25.784;2022-12-22T14:38:21;38.67;;;11.55;;
9522;SDS011;63165;43.016;25.784;2022-12-22T14:40:50;45.88;;;12.80;;
9522;SDS011;63165;43.016;25.784;2022-12-22T14:43:25;34.28;;;10.98;;
9522;SDS011;63165;43.016;25.784;2022-12-22T14:46:03;43.00;;;11.18;;
9522;SDS011;63165;43.016;25.784;2022-12-22T14:48:33;47.28;;;14.38;;
9522;SDS011;63165;43.016;25.784;2022-12-22T14:51:03;70.47;;;20.23;;
9522;SDS011;63165;43.016;25.784;2022-12-22T14:53:35;88.38;;;25.42;;
9522;SDS011;63165;43.016;25.784;2022-12-22T14:56:09;54.95;;;15.98;;
9522;SDS011;63165;43.016;25.784;2022-12-22T14:58:40;36.03;;;12.65;;
9522;SDS011;63165;43.016;25.784;2022-12-22T15:01:19;43.28;;;13.63;;
9522;SDS011;63165;43.016;25.784;2022-12-22T15:03:58;50.65;;;14.43;;
9522;SDS011;63165;43.016;25.784;2022-12-22T15:06:35;184.50;;;46.70;;
9522;SDS011;63165;43.016;25.784;2022-12-22T15:09:06;73.38;;;22.63;;
9522;SDS011;63165;43.016;25.784;2022-12-22T15:11:53;84.53;;;23.83;;
9522;SDS011;63165;43.016;25.784;2022-12-22T15:14:29;157.77;;;42.85;;
9522;SDS011;63165;43.016;25.784;2022-12-22T15:17:00;92.65;;;28.55;;
9522;SDS011;63165;43.016;25.784;2022-12-22T15:19:29;74.72;;;19.92;;
9522;SDS011;63165;43.016;25.784;2022-12-22T15:21:59;84.97;;;24.17;;
9522;SDS011;63165;43.016;25.784;2022-12-22T15:24:27;55.53;;;16.98;;
9522;SDS011;63165;43.016;25.784;2022-12-22T15:26:54;90.32;;;26.02;;
9522;SDS011;63165;43.016;25.784;2022-12-22T15:29:22;61.05;;;17.88;;
9522;SDS011;63165;43.016;25.784;2022-12-22T15:31:51;55.03;;;15.98;;
9522;SDS011;63165;43.016;25.784;2022-12-22T15:34:21;86.38;;;25.92;;
9522;SDS011;63165;43.016;25.784;2022-12-22T15:36:50;92.20;;;27.13;;